Time;durP1;ratioP1;P1;durP2;ratioP2;P2;SDS_P1;SDS_P2;PMS_P1;PMS_P2;Temp;Humidity;BMP_temperature;BMP_pressure;BME280_temperature;BME280_humidity;BME280_pressure;Samples;Min_cycle;Max_cycle;Signal;HPM_P1;HPM_P2
2023/12/16 00:03:28;;;;;;;22.90;17.80;;;;;;;;;;9987009;28;20048;-85
2023/12/16 00:08:21;;;;;;;23.63;18.27;;;;;;;;;;9987718;28;20445;-82
2023/12/16 00:13:13;;;;;;;21.35;18.67;;;;;;;;;;9987452;28;20404;-82
2023/12/16 00:18:05;;;;;;;23.92;19.83;;;;;;;;;;9985850;28;20061;-84
2023/12/16 00:22:57;;;;;;;24.65;21.17;;;;;;;;;;9987439;28;20050;-82
2023/12/16 00:27:49;;;;;;;29.55;21.23;;;;;;;;;;9987274;28;20069;-81
2023/12/16 00:32:42;;;;;;;32.53;23.67;;;;;;;;;;9987070;28;20050;-82
2023/12/16 00:37:34;;;;;;;28.27;23.67;;;;;;;;;;9987488;28;20489;-82
2023/12/16 00:42:27;;;;;;;30.33;24.00;;;;;;;;;;9985563;28;20070;-82
2023/12/16 00:47:19;;;;;;;33.90;24.08;;;;;;;;;;9987769;28;20465;-82
2023/12/16 00:52:11;;;;;;;36.10;24.70;;;;;;;;;;9984386;28;20046;-82
2023/12/16 00:57:03;;;;;;;33.42;26.10;;;;;;;;;;9985970;28;20080;-80
2023/12/16 01:01:55;;;;;;;31.25;24.85;;;;;;;;;;9986077;28;20048;-74
2023/12/16 01:06:47;;;;;;;32.70;26.40;;;;;;;;;;9986693;28;20054;-77
2023/12/16 01:11:40;;;;;;;29.42;24.60;;;;;;;;;;9989062;28;20743;-75
2023/12/16 01:16:32;;;;;;;28.48;23.40;;;;;;;;;;9990132;28;20429;-78
2023/12/16 01:21:24;;;;;;;33.35;24.85;;;;;;;;;;9990718;28;20592;-77
2023/12/16 01:26:16;;;;;;;24.17;21.30;;;;;;;;;;9990227;28;20046;-78
2023/12/16 01:31:08;;;;;;;38.67;23.17;;;;;;;;;;9989027;28;20133;-75
2023/12/16 01:36:01;;;;;;;24.85;19.40;;;;;;;;;;9989921;28;20058;-75
2023/12/16 01:40:52;;;;;;;25.60;21.17;;;;;;;;;;9989331;28;20046;-75
2023/12/16 01:45:44;;;;;;;27.05;21.10;;;;;;;;;;9992466;28;20085;-75
2023/12/16 01:50:37;;;;;;;22.75;17.38;;;;;;;;;;10008166;28;20046;-78
2023/12/16 01:55:29;;;;;;;22.48;18.23;;;;;;;;;;10006934;28;20370;-74
2023/12/16 02:00:21;;;;;;;24.58;18.80;;;;;;;;;;9993271;28;20049;-74
2023/12/16 02:05:13;;;;;;;22.15;15.93;;;;;;;;;;9993430;28;20362;-75
2023/12/16 02:10:05;;;;;;;21.80;16.40;;;;;;;;;;9991343;28;20046;-74
2023/12/16 02:14:57;;;;;;;18.40;16.45;;;;;;;;;;9990700;28;20587;-78
2023/12/16 02:19:49;;;;;;;18.10;13.90;;;;;;;;;;9993484;28;20061;-75
2023/12/16 02:24:41;;;;;;;21.17;16.40;;;;;;;;;;10005165;28;20128;-74
2023/12/16 02:29:34;;;;;;;21.17;18.20;;;;;;;;;;10005281;28;20046;-76
2023/12/16 02:34:26;;;;;;;25.20;17.95;;;;;;;;;;9990484;28;20050;-77
2023/12/16 02:39:18;;;;;;;18.48;16.35;;;;;;;;;;9992665;28;20369;-77
2023/12/16 02:44:10;;;;;;;16.58;14.05;;;;;;;;;;9991108;28;20053;-76
2023/12/16 02:49:01;;;;;;;16.17;14.48;;;;;;;;;;9990227;28;20046;-77
2023/12/16 02:53:53;;;;;;;18.50;14.48;;;;;;;;;;9991746;28;20523;-77
2023/12/16 02:58:45;;;;;;;17.35;12.63;;;;;;;;;;9989596;28;20062;-77
2023/12/16 03:03:38;;;;;;;17.17;13.02;;;;;;;;;;9992505;28;20050;-77
2023/12/16 03:08:30;;;;;;;18.30;14.30;;;;;;;;;;9989635;28;20046;-78
2023/12/16 03:13:21;;;;;;;19.17;14.25;;;;;;;;;;9990063;28;20064;-77
2023/12/16 03:18:14;;;;;;;19.35;14.70;;;;;;;;;;9989098;28;20046;-76
2023/12/16 03:23:05;;;;;;;18.15;13.52;;;;;;;;;;9990092;28;20386;-77
2023/12/16 03:27:57;;;;;;;15.60;13.30;;;;;;;;;;9990081;28;20046;-76
2023/12/16 03:32:49;;;;;;;21.80;15.43;;;;;;;;;;9988012;28;20042;-77
2023/12/16 03:37:41;;;;;;;18.33;16.15;;;;;;;;;;9988765;28;20054;-77
2023/12/16 03:42:33;;;;;;;18.30;14.52;;;;;;;;;;9988111;28;20360;-76
2023/12/16 03:47:26;;;;;;;16.70;14.82;;;;;;;;;;9987779;28;20477;-77
2023/12/16 03:52:18;;;;;;;23.25;16.20;;;;;;;;;;9988250;28;20427;-76
2023/12/16 03:57:10;;;;;;;21.48;16.05;;;;;;;;;;9987657;28;20045;-76
2023/12/16 04:02:02;;;;;;;20.25;14.75;;;;;;;;;;9986954;28;20076;-76
2023/12/16 04:06:58;;;;;;;19.27;16.70;;;;;;;;;;9987264;28;20417;-76
2023/12/16 04:11:50;;;;;;;21.73;17.23;;;;;;;;;;9988707;28;20053;-76
2023/12/16 04:16:42;;;;;;;20.20;17.40;;;;;;;;;;9987039;28;20137;-76
2023/12/16 04:21:34;;;;;;;22.27;17.52;;;;;;;;;;9986860;28;20124;-76
2023/12/16 04:26:26;;;;;;;21.70;18.02;;;;;;;;;;9987943;28;20053;-76
2023/12/16 04:31:17;;;;;;;22.05;19.00;;;;;;;;;;9987125;28;20038;-75
2023/12/16 04:36:16;;;;;;;24.08;18.48;;;;;;;;;;9987894;28;20078;-76
2023/12/16 04:41:14;;;;;;;23.80;19.48;;;;;;;;;;9986070;28;20073;-77
2023/12/16 04:46:07;;;;;;;25.98;22.42;;;;;;;;;;9986192;28;20054;-77
2023/12/16 04:51:05;;;;;;;24.70;19.67;;;;;;;;;;9986831;28;20042;-76
2023/12/16 04:55:57;;;;;;;28.70;19.77;;;;;;;;;;9986800;28;20109;-77
2023/12/16 05:00:49;;;;;;;25.77;18.75;;;;;;;;;;9986454;28;20046;-77
2023/12/16 05:05:41;;;;;;;22.10;17.02;;;;;;;;;;9986184;28;20436;-77
2023/12/16 05:10:33;;;;;;;19.33;15.38;;;;;;;;;;9986324;28;20042;-76
2023/12/16 05:15:25;;;;;;;19.45;14.68;;;;;;;;;;9986979;28;20129;-77
2023/12/16 05:20:17;;;;;;;23.65;15.43;;;;;;;;;;9985849;28;20078;-76
2023/12/16 05:25:09;;;;;;;38.78;31.52;;;;;;;;;;9986258;28;20109;-77
2023/12/16 05:30:02;;;;;;;21.40;16.75;;;;;;;;;;9985120;28;20056;-76
2023/12/16 05:34:56;;;;;;;24.60;20.42;;;;;;;;;;9988083;28;20049;-75
2023/12/16 05:39:48;;;;;;;15.65;12.13;;;;;;;;;;9985726;28;20161;-75
2023/12/16 05:44:40;;;;;;;17.05;14.73;;;;;;;;;;9985555;28;20499;-76
2023/12/16 05:49:31;;;;;;;20.60;16.75;;;;;;;;;;9985083;28;20480;-76
2023/12/16 05:54:24;;;;;;;38.63;27.35;;;;;;;;;;9986089;28;20042;-75
2023/12/16 05:59:16;;;;;;;25.73;18.60;;;;;;;;;;9990367;28;20137;-75
2023/12/16 06:04:08;;;;;;;15.27;13.25;;;;;;;;;;9992204;28;20046;-75
2023/12/16 06:09:00;;;;;;;19.73;14.73;;;;;;;;;;9992324;28;21265;-76
2023/12/16 06:13:52;;;;;;;29.45;21.20;;;;;;;;;;9991455;28;20417;-77
2023/12/16 06:18:45;;;;;;;117.35;74.57;;;;;;;;;;9991920;28;20052;-77
2023/12/16 06:23:38;;;;;;;33.78;22.52;;;;;;;;;;9991851;28;20043;-76
2023/12/16 06:28:29;;;;;;;21.70;18.08;;;;;;;;;;9990699;28;20058;-77
2023/12/16 06:33:24;;;;;;;20.40;16.55;;;;;;;;;;9993817;28;20070;-77
2023/12/16 06:38:16;;;;;;;21.02;14.82;;;;;;;;;;9991181;28;20043;-77
2023/12/16 06:43:08;;;;;;;18.38;15.30;;;;;;;;;;9989935;28;20050;-77
2023/12/16 06:48:00;;;;;;;14.95;12.13;;;;;;;;;;9990154;28;20058;-76
2023/12/16 06:52:52;;;;;;;21.10;16.05;;;;;;;;;;9991055;28;20121;-76
2023/12/16 06:57:44;;;;;;;16.23;12.68;;;;;;;;;;9990950;28;20093;-76
2023/12/16 07:02:37;;;;;;;15.10;11.52;;;;;;;;;;9989940;28;20433;-76
2023/12/16 07:07:29;;;;;;;12.45;10.48;;;;;;;;;;9987230;28;20084;-76
2023/12/16 07:12:21;;;;;;;16.98;11.05;;;;;;;;;;9990707;28;20088;-76
2023/12/16 07:17:13;;;;;;;25.58;18.17;;;;;;;;;;10004053;28;20054;-76
2023/12/16 07:22:05;;;;;;;10.55;8.93;;;;;;;;;;9988923;28;20043;-76
2023/12/16 07:26:57;;;;;;;17.13;10.27;;;;;;;;;;9988066;28;20045;-76
2023/12/16 07:31:49;;;;;;;13.85;11.73;;;;;;;;;;9988083;28;20053;-76
2023/12/16 07:36:41;;;;;;;14.18;12.73;;;;;;;;;;9987564;28;20111;-76
2023/12/16 07:41:34;;;;;;;14.63;12.45;;;;;;;;;;9987110;28;20385;-76
2023/12/16 07:46:26;;;;;;;16.25;14.00;;;;;;;;;;9987227;28;20039;-77
2023/12/16 07:51:19;;;;;;;17.20;14.43;;;;;;;;;;9987570;28;20542;-76
2023/12/16 07:56:20;;;;;;;16.95;13.48;;;;;;;;;;9987143;28;20034;-76
2023/12/16 08:01:15;;;;;;;10.40;9.32;;;;;;;;;;9986267;28;20045;-76
2023/12/16 08:06:11;;;;;;;18.65;10.02;;;;;;;;;;9987352;28;20050;-76
2023/12/16 08:11:04;;;;;;;12.75;9.52;;;;;;;;;;9986268;28;20431;-76
2023/12/16 08:15:56;;;;;;;14.13;12.45;;;;;;;;;;9985976;28;20038;-77
2023/12/16 08:20:48;;;;;;;15.27;12.18;;;;;;;;;;9986097;28;20048;-77
2023/12/16 08:25:40;;;;;;;20.58;14.63;;;;;;;;;;9994401;28;20435;-75
2023/12/16 08:30:32;;;;;;;19.02;15.73;;;;;;;;;;9987132;28;20388;-79
2023/12/16 08:35:23;;;;;;;21.50;17.48;;;;;;;;;;9985349;28;20342;-78
2023/12/16 08:40:16;;;;;;;24.15;17.58;;;;;;;;;;9986347;28;20050;-78
2023/12/16 08:45:08;;;;;;;21.80;18.33;;;;;;;;;;9984510;28;20125;-75
2023/12/16 08:50:00;;;;;;;28.88;20.05;;;;;;;;;;9984993;28;20133;-76
2023/12/16 08:54:53;;;;;;;29.75;21.58;;;;;;;;;;9985832;28;20425;-80
2023/12/16 08:59:45;;;;;;;26.00;21.38;;;;;;;;;;9984927;28;20120;-76
2023/12/16 09:04:36;;;;;;;25.02;22.17;;;;;;;;;;9983882;28;20157;-77
2023/12/16 09:09:28;;;;;;;26.05;22.23;;;;;;;;;;10019080;28;20046;-77
2023/12/16 09:14:20;;;;;;;26.42;22.52;;;;;;;;;;9990508;28;20054;-76
2023/12/16 09:19:12;;;;;;;29.17;23.80;;;;;;;;;;9990781;28;20471;-79
2023/12/16 09:24:05;;;;;;;26.50;22.75;;;;;;;;;;10008798;28;20469;-78
2023/12/16 09:28:57;;;;;;;24.58;21.10;;;;;;;;;;10021448;28;20089;-76
2023/12/16 09:33:49;;;;;;;31.15;23.25;;;;;;;;;;10029078;28;20380;-76
2023/12/16 09:38:41;;;;;;;34.40;23.50;;;;;;;;;;10028239;28;20477;-75
2023/12/16 09:43:36;;;;;;;22.02;19.52;;;;;;;;;;10029632;28;20050;-74
2023/12/16 09:48:29;;;;;;;26.45;21.00;;;;;;;;;;10027618;28;20050;-74
2023/12/16 09:53:22;;;;;;;27.35;20.83;;;;;;;;;;10027768;28;20041;-73
2023/12/16 09:58:16;;;;;;;19.88;17.75;;;;;;;;;;10012147;28;20045;-74
2023/12/16 10:03:08;;;;;;;24.80;17.70;;;;;;;;;;10006738;28;20042;-73
2023/12/16 10:08:05;;;;;;;31.65;18.48;;;;;;;;;;10007812;28;20145;-74
2023/12/16 10:13:02;;;;;;;22.25;17.85;;;;;;;;;;9992507;28;20047;-73
2023/12/16 10:17:54;;;;;;;26.17;18.50;;;;;;;;;;9991670;28;20520;-74
2023/12/16 10:22:46;;;;;;;22.98;18.70;;;;;;;;;;9991540;28;20477;-77
2023/12/16 10:27:41;;;;;;;18.50;15.10;;;;;;;;;;10009090;28;20145;-76
2023/12/16 10:32:33;;;;;;;19.42;14.80;;;;;;;;;;9990914;28;20421;-76
2023/12/16 10:37:25;;;;;;;22.10;15.05;;;;;;;;;;9993587;28;20049;-77
2023/12/16 10:42:17;;;;;;;16.02;14.27;;;;;;;;;;9993853;28;20069;-76
2023/12/16 10:47:11;;;;;;;15.65;13.93;;;;;;;;;;9988575;28;20069;-76
2023/12/16 10:52:12;;;;;;;16.27;13.07;;;;;;;;;;9990390;28;20073;-76
2023/12/16 10:57:16;;;;;;;19.98;13.10;;;;;;;;;;9990187;28;20050;-76
2023/12/16 11:02:23;;;;;;;21.80;14.38;;;;;;;;;;9990396;28;20033;-77
2023/12/16 11:07:21;;;;;;;17.10;11.95;;;;;;;;;;9990095;28;20092;-77
2023/12/16 11:12:13;;;;;;;12.50;11.15;;;;;;;;;;9999667;28;20158;-78
2023/12/16 11:17:14;;;;;;;14.25;11.15;;;;;;;;;;9998718;28;20105;-77
2023/12/16 11:22:09;;;;;;;15.20;11.60;;;;;;;;;;9985718;28;20089;-77
2023/12/16 11:27:02;;;;;;;14.48;10.77;;;;;;;;;;9984367;28;20046;-76
2023/12/16 11:31:56;;;;;;;17.48;10.45;;;;;;;;;;9987347;28;20077;-75
2023/12/16 11:36:55;;;;;;;14.32;11.95;;;;;;;;;;9985367;28;20034;-76
2023/12/16 11:41:49;;;;;;;13.10;11.75;;;;;;;;;;9985792;28;20050;-76
2023/12/16 11:46:42;;;;;;;14.95;11.52;;;;;;;;;;9989533;28;20127;-75
2023/12/16 11:51:40;;;;;;;11.45;9.65;;;;;;;;;;9993940;28;20042;-75
2023/12/16 11:56:33;;;;;;;12.50;9.57;;;;;;;;;;9995038;28;20050;-75
2023/12/16 12:01:32;;;;;;;16.50;11.68;;;;;;;;;;9987712;28;20112;-76
2023/12/16 12:06:24;;;;;;;15.18;11.50;;;;;;;;;;9988220;28;20039;-77
2023/12/16 12:11:17;;;;;;;13.70;10.52;;;;;;;;;;9988292;28;20141;-78
2023/12/16 12:16:12;;;;;;;14.20;11.40;;;;;;;;;;9987235;28;20042;-78
2023/12/16 12:21:04;;;;;;;11.95;9.82;;;;;;;;;;9987186;28;20421;-78
2023/12/16 12:25:56;;;;;;;11.82;8.77;;;;;;;;;;9986409;28;20039;-78
2023/12/16 12:30:48;;;;;;;10.85;8.80;;;;;;;;;;9986474;28;20140;-77
2023/12/16 12:35:40;;;;;;;12.60;8.52;;;;;;;;;;9987055;28;20052;-77
2023/12/16 12:40:32;;;;;;;10.00;8.68;;;;;;;;;;10000913;28;20081;-77
2023/12/16 12:45:24;;;;;;;11.98;9.63;;;;;;;;;;9987654;28;20045;-76
2023/12/16 12:50:24;;;;;;;15.27;9.40;;;;;;;;;;9983009;28;20049;-77
2023/12/16 12:55:18;;;;;;;12.82;11.07;;;;;;;;;;9983918;28;20073;-77
2023/12/16 13:00:11;;;;;;;13.90;10.18;;;;;;;;;;9992572;28;20173;-77
2023/12/16 13:05:03;;;;;;;16.15;9.02;;;;;;;;;;9990801;28;20057;-78
2023/12/16 13:09:55;;;;;;;12.65;9.13;;;;;;;;;;9993667;28;20064;-78
2023/12/16 13:14:47;;;;;;;8.98;8.18;;;;;;;;;;9997559;28;20050;-77
2023/12/16 13:19:40;;;;;;;13.25;9.40;;;;;;;;;;10007506;28;20046;-76
2023/12/16 13:24:32;;;;;;;9.82;8.52;;;;;;;;;;9993531;28;20046;-77
2023/12/16 13:29:24;;;;;;;14.25;9.65;;;;;;;;;;9993520;28;20126;-77
2023/12/16 13:34:16;;;;;;;13.07;8.73;;;;;;;;;;9994013;28;20042;-77
2023/12/16 13:39:08;;;;;;;17.23;9.95;;;;;;;;;;9993510;28;20053;-75
2023/12/16 13:44:00;;;;;;;13.43;10.15;;;;;;;;;;9994649;28;20077;-75
2023/12/16 13:48:52;;;;;;;14.85;10.30;;;;;;;;;;9993340;28;20073;-76
2023/12/16 13:53:44;;;;;;;13.85;10.80;;;;;;;;;;9992763;28;20042;-75
2023/12/16 13:58:36;;;;;;;15.27;11.38;;;;;;;;;;9992728;28;20081;-73
2023/12/16 14:03:28;;;;;;;13.98;11.80;;;;;;;;;;9991959;28;20065;-73
2023/12/16 14:08:20;;;;;;;12.82;11.45;;;;;;;;;;9991898;28;20042;-74
2023/12/16 14:13:12;;;;;;;25.10;18.70;;;;;;;;;;9992830;28;20046;-73
2023/12/16 14:18:04;;;;;;;13.10;11.13;;;;;;;;;;10003434;28;20137;-74
2023/12/16 14:22:56;;;;;;;16.05;12.90;;;;;;;;;;9996197;28;20053;-76
2023/12/16 14:27:49;;;;;;;15.07;12.55;;;;;;;;;;10011587;28;20065;-74
2023/12/16 14:32:41;;;;;;;16.45;12.55;;;;;;;;;;9994306;28;20133;-74
2023/12/16 14:37:33;;;;;;;15.60;12.05;;;;;;;;;;9999835;28;20046;-74
2023/12/16 14:42:25;;;;;;;17.10;13.75;;;;;;;;;;9990408;28;20058;-76
2023/12/16 14:47:17;;;;;;;14.52;12.02;;;;;;;;;;10001517;28;20133;-75
2023/12/16 14:52:09;;;;;;;27.13;19.60;;;;;;;;;;9997835;28;20050;-75
2023/12/16 14:57:01;;;;;;;19.40;14.93;;;;;;;;;;10001238;28;21079;-74
2023/12/16 15:01:54;;;;;;;18.20;13.00;;;;;;;;;;9990414;28;20042;-74
2023/12/16 15:06:46;;;;;;;15.88;13.90;;;;;;;;;;9990136;28;20056;-76
2023/12/16 15:11:39;;;;;;;18.13;13.95;;;;;;;;;;9989701;28;20053;-75
2023/12/16 15:16:31;;;;;;;20.85;14.45;;;;;;;;;;9997011;28;20385;-75
2023/12/16 15:21:23;;;;;;;28.10;24.25;;;;;;;;;;10020683;28;20354;-75
2023/12/16 15:26:15;;;;;;;14.18;12.75;;;;;;;;;;10023844;28;20052;-74
2023/12/16 15:31:07;;;;;;;13.57;11.27;;;;;;;;;;10022832;28;20054;-74
2023/12/16 15:35:59;;;;;;;21.00;14.55;;;;;;;;;;10015030;28;20061;-73
2023/12/16 15:40:51;;;;;;;39.50;30.48;;;;;;;;;;10001440;28;20050;-74
2023/12/16 15:45:43;;;;;;;14.57;13.07;;;;;;;;;;10023655;28;20096;-73
2023/12/16 15:50:35;;;;;;;17.75;14.23;;;;;;;;;;10025652;28;20045;-73
2023/12/16 15:55:27;;;;;;;69.65;60.42;;;;;;;;;;10025366;28;20038;-74
2023/12/16 16:00:20;;;;;;;22.20;19.85;;;;;;;;;;10024464;28;20125;-74
2023/12/16 16:05:12;;;;;;;29.30;25.33;;;;;;;;;;10022559;28;20042;-75
2023/12/16 16:10:04;;;;;;;28.25;20.60;;;;;;;;;;10023671;28;20046;-76
2023/12/16 16:14:56;;;;;;;301.20;221.88;;;;;;;;;;10023436;28;20038;-77
2023/12/16 16:19:48;;;;;;;20.58;18.48;;;;;;;;;;10023749;28;20049;-77
2023/12/16 16:24:42;;;;;;;17.38;14.90;;;;;;;;;;10011399;28;20092;-77
2023/12/16 16:29:39;;;;;;;22.80;19.60;;;;;;;;;;10022270;28;20064;-76
2023/12/16 16:34:31;;;;;;;21.55;19.55;;;;;;;;;;10020347;28;20045;-76
2023/12/16 16:39:23;;;;;;;26.95;21.23;;;;;;;;;;10023079;28;20042;-76
2023/12/16 16:44:16;;;;;;;25.17;18.75;;;;;;;;;;10023292;28;20061;-76
2023/12/16 16:49:08;;;;;;;16.40;14.10;;;;;;;;;;10021033;28;20050;-77
2023/12/16 16:54:00;;;;;;;17.63;15.38;;;;;;;;;;10019456;28;20053;-77
2023/12/16 16:58:52;;;;;;;16.80;14.18;;;;;;;;;;10023576;28;20050;-77
2023/12/16 17:03:44;;;;;;;15.35;13.73;;;;;;;;;;10009431;28;20054;-77
2023/12/16 17:08:36;;;;;;;14.77;12.95;;;;;;;;;;9990309;28;20065;-77
2023/12/16 17:13:28;;;;;;;14.45;13.10;;;;;;;;;;10022658;28;20045;-76
2023/12/16 17:18:23;;;;;;;18.10;15.32;;;;;;;;;;9998562;28;20049;-76
2023/12/16 17:23:15;;;;;;;19.75;14.82;;;;;;;;;;10014197;28;20128;-76
2023/12/16 17:28:07;;;;;;;21.48;16.65;;;;;;;;;;9995948;28;20035;-76
2023/12/16 17:32:59;;;;;;;23.23;17.67;;;;;;;;;;10000524;28;20050;-76
2023/12/16 17:37:51;;;;;;;23.77;17.02;;;;;;;;;;10000438;28;20058;-76
2023/12/16 17:42:43;;;;;;;19.45;14.65;;;;;;;;;;9995482;28;20066;-75
2023/12/16 17:47:35;;;;;;;19.05;14.20;;;;;;;;;;10009943;28;20042;-76
2023/12/16 17:52:28;;;;;;;17.08;14.95;;;;;;;;;;10012434;28;20078;-76
2023/12/16 17:57:20;;;;;;;17.63;15.93;;;;;;;;;;9997452;28;20053;-75
2023/12/16 18:02:12;;;;;;;17.60;15.80;;;;;;;;;;10024023;28;20046;-76
2023/12/16 18:07:05;;;;;;;16.85;15.15;;;;;;;;;;10022820;28;20108;-75
2023/12/16 18:11:57;;;;;;;17.25;15.43;;;;;;;;;;10022696;28;20061;-76
2023/12/16 18:16:51;;;;;;;16.33;14.40;;;;;;;;;;10023113;28;20092;-75
2023/12/16 18:21:43;;;;;;;16.10;14.50;;;;;;;;;;10030617;28;20132;-76
2023/12/16 18:26:35;;;;;;;14.50;12.95;;;;;;;;;;10022399;28;20042;-76
2023/12/16 18:31:27;;;;;;;18.20;15.23;;;;;;;;;;10021990;28;20397;-76
2023/12/16 18:36:19;;;;;;;20.33;18.15;;;;;;;;;;10022117;28;20041;-75
2023/12/16 18:41:11;;;;;;;24.10;18.55;;;;;;;;;;10022311;28;20053;-75
2023/12/16 18:46:04;;;;;;;17.90;16.05;;;;;;;;;;10021952;28;20058;-76
2023/12/16 18:50:56;;;;;;;18.10;15.35;;;;;;;;;;10027049;28;20435;-75
2023/12/16 18:55:48;;;;;;;21.88;19.20;;;;;;;;;;9991509;28;20043;-76
2023/12/16 19:00:39;;;;;;;25.95;23.08;;;;;;;;;;9989674;28;20133;-76
2023/12/16 19:05:31;;;;;;;17.23;15.40;;;;;;;;;;9988125;28;20052;-76
2023/12/16 19:10:24;;;;;;;23.30;16.60;;;;;;;;;;9987858;28;20100;-76
2023/12/16 19:15:15;;;;;;;20.13;17.00;;;;;;;;;;9989571;28;20038;-75
2023/12/16 19:20:09;;;;;;;16.33;14.60;;;;;;;;;;9988422;28;20038;-75
2023/12/16 19:25:00;;;;;;;14.93;13.38;;;;;;;;;;9999282;28;20038;-75
2023/12/16 19:29:52;;;;;;;14.63;13.15;;;;;;;;;;9988689;28;20120;-75
2023/12/16 19:34:44;;;;;;;20.77;14.32;;;;;;;;;;9992910;28;20435;-75
2023/12/16 19:39:38;;;;;;;17.13;14.48;;;;;;;;;;10021158;28;20049;-75
2023/12/16 19:44:30;;;;;;;16.58;14.43;;;;;;;;;;10022212;28;20381;-75
2023/12/16 19:49:22;;;;;;;19.40;17.40;;;;;;;;;;10023839;28;20380;-75
2023/12/16 19:54:14;;;;;;;15.85;13.32;;;;;;;;;;10010697;28;20133;-75
2023/12/16 19:59:07;;;;;;;15.88;14.25;;;;;;;;;;9997853;28;20429;-74
2023/12/16 20:03:58;;;;;;;24.27;19.38;;;;;;;;;;10015111;28;20057;-74
2023/12/16 20:08:50;;;;;;;13.57;12.30;;;;;;;;;;10017884;28;20042;-74
2023/12/16 20:13:45;;;;;;;15.10;13.60;;;;;;;;;;10015116;28;20449;-73
2023/12/16 20:18:37;;;;;;;13.35;12.00;;;;;;;;;;10008497;28;20050;-74
2023/12/16 20:23:29;;;;;;;12.52;11.25;;;;;;;;;;10022374;28;20042;-74
2023/12/16 20:28:22;;;;;;;11.82;10.73;;;;;;;;;;10012309;28;20089;-74
2023/12/16 20:33:13;;;;;;;16.63;14.93;;;;;;;;;;10019210;28;20061;-74
2023/12/16 20:40:27;;;;;;;15.85;11.38;;;;;;;;;;10022863;28;20469;-74
2023/12/16 20:43:17;;;;;;;15.00;12.50;;;;;;;;;;10022851;28;20057;-74
2023/12/16 20:48:09;;;;;;;17.33;15.65;;;;;;;;;;10008176;28;20053;-74
2023/12/16 20:53:02;;;;;;;15.63;13.95;;;;;;;;;;10029404;28;20366;-74
2023/12/16 20:57:54;;;;;;;14.93;12.25;;;;;;;;;;10014972;28;20042;-74
2023/12/16 21:02:46;;;;;;;14.35;12.98;;;;;;;;;;10018685;28;20045;-73
2023/12/16 21:07:41;;;;;;;13.38;11.98;;;;;;;;;;10016993;28;20050;-74
2023/12/16 21:12:33;;;;;;;13.60;11.77;;;;;;;;;;10020111;28;20038;-73
2023/12/16 21:17:26;;;;;;;12.38;11.20;;;;;;;;;;10022809;28;20491;-73
2023/12/16 21:22:18;;;;;;;13.45;12.00;;;;;;;;;;10023232;28;20096;-73
2023/12/16 21:27:10;;;;;;;14.55;13.13;;;;;;;;;;10023042;28;20034;-74
2023/12/16 21:32:02;;;;;;;15.20;13.70;;;;;;;;;;10029110;28;20042;-73
2023/12/16 21:36:55;;;;;;;14.68;12.90;;;;;;;;;;10029114;28;20045;-74
2023/12/16 21:41:47;;;;;;;14.70;12.27;;;;;;;;;;10015436;28;20079;-73
2023/12/16 21:46:39;;;;;;;12.13;9.63;;;;;;;;;;10028299;28;20057;-73
2023/12/16 21:51:32;;;;;;;13.07;11.77;;;;;;;;;;10014891;28;20052;-73
2023/12/16 21:56:25;;;;;;;14.05;12.13;;;;;;;;;;10026562;28;20388;-73
2023/12/16 22:01:21;;;;;;;13.40;11.65;;;;;;;;;;10028903;28;20041;-73
2023/12/16 22:06:13;;;;;;;12.90;10.25;;;;;;;;;;10029600;28;20038;-73
2023/12/16 22:11:06;;;;;;;11.25;10.15;;;;;;;;;;10028512;28;20380;-73
2023/12/16 22:15:58;;;;;;;12.57;10.85;;;;;;;;;;10027568;28;20056;-73
2023/12/16 22:20:49;;;;;;;12.30;10.45;;;;;;;;;;10023645;28;20068;-73
2023/12/16 22:25:41;;;;;;;13.60;11.50;;;;;;;;;;10026657;28;20069;-73
2023/12/16 22:30:33;;;;;;;18.83;15.77;;;;;;;;;;10027960;28;20177;-73
2023/12/16 22:35:25;;;;;;;23.48;17.90;;;;;;;;;;10028580;28;20042;-73
2023/12/16 22:40:18;;;;;;;18.38;16.40;;;;;;;;;;10025480;28;20065;-73
2023/12/16 22:45:10;;;;;;;12.18;10.77;;;;;;;;;;10018311;28;20042;-73
2023/12/16 22:50:02;;;;;;;11.50;9.48;;;;;;;;;;10023476;28;20042;-73
2023/12/16 22:54:54;;;;;;;11.18;9.68;;;;;;;;;;10022147;28;20527;-73
2023/12/16 22:59:46;;;;;;;12.15;10.90;;;;;;;;;;10006080;28;20050;-73
2023/12/16 23:04:38;;;;;;;18.38;10.63;;;;;;;;;;10016773;28;20042;-73
2023/12/16 23:09:30;;;;;;;14.73;11.77;;;;;;;;;;10025991;28;20069;-73
2023/12/16 23:14:22;;;;;;;12.73;10.93;;;;;;;;;;10025892;28;20056;-73
2023/12/16 23:19:14;;;;;;;13.00;11.40;;;;;;;;;;10025803;28;20096;-73
2023/12/16 23:24:06;;;;;;;10.68;9.57;;;;;;;;;;10022599;28;20415;-73
2023/12/16 23:28:58;;;;;;;10.23;9.18;;;;;;;;;;10023190;28;20617;-73
2023/12/16 23:33:50;;;;;;;11.48;8.32;;;;;;;;;;10025263;28;20053;-72
2023/12/16 23:38:42;;;;;;;10.30;8.80;;;;;;;;;;10025614;28;20108;-73
2023/12/16 23:43:34;;;;;;;9.73;8.27;;;;;;;;;;10025509;28;20445;-73
2023/12/16 23:48:26;;;;;;;10.00;8.45;;;;;;;;;;10025274;28;20042;-72
2023/12/16 23:53:18;;;;;;;13.93;9.35;;;;;;;;;;10023777;28;20400;-73
2023/12/16 23:58:10;;;;;;;9.73;8.35;;;;;;;;;;10019492;28;20068;-73
